Corona Emblem — 3FHF8 — position and weather

sailwx.info

Track history (hours):
 
Tides and Currents Weather Stations Pressure Air Temp Water Temp Dewpoint Dewpoint Depression Visibility Wind Speed Wind Dir Waves Ship Positions

Corona Emblem

Last reported at 2014-Nov-18 03:32 UTC. Time now 2014-Nov-28 00:11 UTC.
Position S 26°04' E 153°54'.
Warning: this ship's position is 9 days out of date.

Length 230 m; beam 36 m.

Type: Cargo ship. MMSI: 354224000.

Date/timePositionNaut miles runAvg speedWind from/ knotsBaromVisibWave heightAir tempDewpointWater temp
2014-Nov-18 03:32S 26°04' E 153°54'7 7.3
2014-Nov-18 02:33S 26°11' E 153°53'29 8.7
2014-Nov-17 23:13S 26°40' E 153°52'1012.2
2014-Nov-17 22:25S 26°50' E 153°52'1011.9
2014-Nov-17 21:33S 26°60' E 153°52'1111.3
2014-Nov-17 20:34S 27°11' E 153°51'1111.0
2014-Nov-17 19:33S 27°22' E 153°50'1111.0
2014-Nov-17 18:33S 27°33' E 153°50'1111.1
2014-Nov-17 17:33S 27°44' E 153°50'1110.7
2014-Nov-17 16:33S 27°55' E 153°49'1010.0
2014-Nov-17 15:33S 28°05' E 153°49'268 9.2
2014-Nov-16 10:29S 32°27' E 152°42'1111.7
2014-Nov-16 09:33S 32°35' E 152°32'1111.4
2014-Nov-16 08:34S 32°43' E 152°23'1111.2
2014-Nov-16 07:33S 32°50' E 152°13'1211.6
2014-Nov-16 06:34S 32°54' E 152°00'10 9.8
2014-Nov-16 05:33S 32°55' E 151°49'2 2.4
2014-Nov-16 04:34S 32°53' E 151°46'0 0.1
2014-Nov-16 03:33S 32°53' E 151°46'0 0.1
2014-Nov-16 02:33S 32°53' E 151°46'0 0.0
2014-Nov-16 01:33S 32°53' E 151°46'0 0.0
2014-Nov-16 00:33S 32°53' E 151°46'0 0.0
2014-Nov-15 22:15S 32°53' E 151°46'0 0.1
2014-Nov-15 21:33S 32°53' E 151°46'0 0.0
2014-Nov-15 20:33S 32°53' E 151°46'0 0.0
2014-Nov-15 19:27S 32°53' E 151°46'0 0.0
2014-Nov-15 18:21S 32°53' E 151°46'0 0.0
2014-Nov-15 17:09S 32°53' E 151°46'0 0.0
2014-Nov-15 16:12S 32°53' E 151°46'0 0.1
2014-Nov-15 15:33S 32°53' E 151°46'0 0.1
2014-Nov-15 14:33S 32°53' E 151°46'2 2.1
2014-Nov-15 13:33S 32°55' E 151°47'6 6.4
2014-Nov-15 12:33S 33°01' E 151°51'19 0.7
2014-Nov-14 10:30S 33°17' E 151°40'0 0.0
2014-Nov-14 09:30S 33°17' E 151°40'0 0.1
2014-Nov-14 08:33S 33°17' E 151°40'0 0.0
2014-Nov-14 07:33S 33°17' E 151°40'0 0.0
2014-Nov-14 06:18S 33°17' E 151°40'0 0.0
2014-Nov-14 05:18S 33°17' E 151°40'0 0.0
2014-Nov-14 04:33S 33°17' E 151°40'0 0.0
2014-Nov-14 03:30S 33°17' E 151°40'0 0.0
2014-Nov-14 02:24S 33°17' E 151°40'0 0.0
2014-Nov-14 01:33S 33°17' E 151°40'0 0.0
2014-Nov-14 00:24S 33°17' E 151°40'0 0.0
2014-Nov-13 22:09S 33°17' E 151°40'  
2014-Nov-09 17:18S 28°16' E 153°48'1114.9
2014-Nov-09 16:33S 28°05' E 153°48'1414.4
2014-Nov-09 15:33S 27°50' E 153°49'1414.3
2014-Nov-09 14:33S 27°36' E 153°50'1414.1
2014-Nov-09 13:33S 27°22' E 153°51'1313.5
2014-Nov-09 12:33S 27°09' E 153°50'1312.9
2014-Nov-09 11:33S 26°56' E 153°52'1212.3
2014-Nov-09 10:33S 26°43' E 153°52'1212.3
2014-Nov-09 09:33S 26°31' E 153°52'1212.5
2014-Nov-09 08:33S 26°19' E 153°52'1312.7
2014-Nov-09 07:33S 26°06' E 153°53'1413.8
2014-Nov-09 06:32S 25°52' E 153°54'1413.6
2014-Nov-09 05:31S 25°38' E 153°55'  
Track history (hours):
 
Tides and Currents Weather Stations Pressure Air Temp Water Temp Dewpoint Dewpoint Depression Visibility Wind Speed Wind Dir Waves Ship Positions

Corona Emblem

Last reported at 2014-Nov-18 03:32 UTC. Time now 2014-Nov-28 00:11 UTC.
Position S 26°04' E 153°54'.
Warning: this ship's position is 9 days out of date.

Length 230 m; beam 36 m.

Type: Cargo ship. MMSI: 354224000.

Date/timePositionNaut miles runAvg speedWind from/ knotsBaromVisibWave heightAir tempDewpointWater temp
2014-Nov-18 03:32S 26°04' E 153°54'7 7.3
2014-Nov-18 02:33S 26°11' E 153°53'29 8.7
2014-Nov-17 23:13S 26°40' E 153°52'1012.2
2014-Nov-17 22:25S 26°50' E 153°52'1011.9
2014-Nov-17 21:33S 26°60' E 153°52'1111.3
2014-Nov-17 20:34S 27°11' E 153°51'1111.0
2014-Nov-17 19:33S 27°22' E 153°50'1111.0
2014-Nov-17 18:33S 27°33' E 153°50'1111.1
2014-Nov-17 17:33S 27°44' E 153°50'1110.7
2014-Nov-17 16:33S 27°55' E 153°49'1010.0
2014-Nov-17 15:33S 28°05' E 153°49'268 9.2
2014-Nov-16 10:29S 32°27' E 152°42'1111.7
2014-Nov-16 09:33S 32°35' E 152°32'1111.4
2014-Nov-16 08:34S 32°43' E 152°23'1111.2
2014-Nov-16 07:33S 32°50' E 152°13'1211.6
2014-Nov-16 06:34S 32°54' E 152°00'10 9.8
2014-Nov-16 05:33S 32°55' E 151°49'2 2.4
2014-Nov-16 04:34S 32°53' E 151°46'0 0.1
2014-Nov-16 03:33S 32°53' E 151°46'0 0.1
2014-Nov-16 02:33S 32°53' E 151°46'0 0.0
2014-Nov-16 01:33S 32°53' E 151°46'0 0.0
2014-Nov-16 00:33S 32°53' E 151°46'0 0.0
2014-Nov-15 22:15S 32°53' E 151°46'0 0.1
2014-Nov-15 21:33S 32°53' E 151°46'0 0.0
2014-Nov-15 20:33S 32°53' E 151°46'0 0.0
2014-Nov-15 19:27S 32°53' E 151°46'0 0.0
2014-Nov-15 18:21S 32°53' E 151°46'0 0.0
2014-Nov-15 17:09S 32°53' E 151°46'0 0.0
2014-Nov-15 16:12S 32°53' E 151°46'0 0.1
2014-Nov-15 15:33S 32°53' E 151°46'0 0.1
2014-Nov-15 14:33S 32°53' E 151°46'2 2.1
2014-Nov-15 13:33S 32°55' E 151°47'6 6.4
2014-Nov-15 12:33S 33°01' E 151°51'19 0.7
2014-Nov-14 10:30S 33°17' E 151°40'0 0.0
2014-Nov-14 09:30S 33°17' E 151°40'0 0.1
2014-Nov-14 08:33S 33°17' E 151°40'0 0.0
2014-Nov-14 07:33S 33°17' E 151°40'0 0.0
2014-Nov-14 06:18S 33°17' E 151°40'0 0.0
2014-Nov-14 05:18S 33°17' E 151°40'0 0.0
2014-Nov-14 04:33S 33°17' E 151°40'0 0.0
2014-Nov-14 03:30S 33°17' E 151°40'0 0.0
2014-Nov-14 02:24S 33°17' E 151°40'0 0.0
2014-Nov-14 01:33S 33°17' E 151°40'0 0.0
2014-Nov-14 00:24S 33°17' E 151°40'0 0.0
2014-Nov-13 22:09S 33°17' E 151°40'  
2014-Nov-09 17:18S 28°16' E 153°48'1114.9
2014-Nov-09 16:33S 28°05' E 153°48'1414.4
2014-Nov-09 15:33S 27°50' E 153°49'1414.3
2014-Nov-09 14:33S 27°36' E 153°50'1414.1
2014-Nov-09 13:33S 27°22' E 153°51'1313.5
2014-Nov-09 12:33S 27°09' E 153°50'1312.9
2014-Nov-09 11:33S 26°56' E 153°52'1212.3
2014-Nov-09 10:33S 26°43' E 153°52'1212.3
2014-Nov-09 09:33S 26°31' E 153°52'1212.5
2014-Nov-09 08:33S 26°19' E 153°52'1312.7
2014-Nov-09 07:33S 26°06' E 153°53'1413.8
2014-Nov-09 06:32S 25°52' E 153°54'1413.6
2014-Nov-09 05:31S 25°38' E 153°55'  

Dump ship's entire track history